sensor_id;sensor_type;location;lat;lon;timestamp;pressure;altitude;pressure_sealevel;temperature;humidity
52469;BME280;38381;53.688;10.776;2022-07-06T00:04:41;101813.69;;;14.83;72.84
52469;BME280;38381;53.688;10.776;2022-07-06T00:09:42;101814.56;;;14.85;73.42
52469;BME280;38381;53.688;10.776;2022-07-06T00:14:42;101808.50;;;14.92;73.20
52469;BME280;38381;53.688;10.776;2022-07-06T00:19:42;101809.38;;;14.91;72.90
52469;BME280;38381;53.688;10.776;2022-07-06T00:24:42;101807.59;;;14.84;72.71
52469;BME280;38381;53.688;10.776;2022-07-06T00:29:43;101801.47;;;14.82;72.31
52469;BME280;38381;53.688;10.776;2022-07-06T00:34:44;101801.50;;;14.85;72.48
52469;BME280;38381;53.688;10.776;2022-07-06T00:39:44;101809.31;;;14.82;72.67
52469;BME280;38381;53.688;10.776;2022-07-06T00:44:44;101807.50;;;14.72;72.80
52469;BME280;38381;53.688;10.776;2022-07-06T00:49:44;101801.44;;;14.76;72.97
52469;BME280;38381;53.688;10.776;2022-07-06T00:55:03;101805.69;;;14.57;73.52
52469;BME280;38381;53.688;10.776;2022-07-06T01:00:05;101804.72;;;14.52;73.99
52469;BME280;38381;53.688;10.776;2022-07-06T01:05:11;101803.91;;;14.54;73.76
52469;BME280;38381;53.688;10.776;2022-07-06T01:10:14;101812.56;;;14.48;74.01
52469;BME280;38381;53.688;10.776;2022-07-06T01:15:17;101815.09;;;14.41;74.34
52469;BME280;38381;53.688;10.776;2022-07-06T01:20:19;101812.47;;;14.39;74.48
52469;BME280;38381;53.688;10.776;2022-07-06T01:25:20;101812.47;;;14.38;74.90
52469;BME280;38381;53.688;10.776;2022-07-06T01:30:20;101802.91;;;14.38;74.84
52469;BME280;38381;53.688;10.776;2022-07-06T01:35:21;101806.28;;;14.26;74.93
52469;BME280;38381;53.688;10.776;2022-07-06T01:40:22;101805.53;;;14.40;74.83
52469;BME280;38381;53.688;10.776;2022-07-06T01:45:22;101797.69;;;14.41;74.70
52469;BME280;38381;53.688;10.776;2022-07-06T01:50:23;101794.19;;;14.39;74.38
52469;BME280;38381;53.688;10.776;2022-07-06T01:55:23;101800.22;;;14.29;75.06
52469;BME280;38381;53.688;10.776;2022-07-06T02:00:23;101794.13;;;14.25;75.38
52469;BME280;38381;53.688;10.776;2022-07-06T02:05:23;101798.50;;;14.31;75.41
52469;BME280;38381;53.688;10.776;2022-07-06T02:10:24;101801.94;;;14.25;75.75
52469;BME280;38381;53.688;10.776;2022-07-06T02:15:24;101793.28;;;14.33;75.33
52469;BME280;38381;53.688;10.776;2022-07-06T02:20:25;101802.88;;;14.32;75.70
52469;BME280;38381;53.688;10.776;2022-07-06T02:25:25;101803.69;;;14.28;75.69
52469;BME280;38381;53.688;10.776;2022-07-06T02:30:25;101803.69;;;14.23;76.24
52469;BME280;38381;53.688;10.776;2022-07-06T02:35:26;101801.94;;;14.27;76.37
52469;BME280;38381;53.688;10.776;2022-07-06T02:40:26;101795.00;;;14.31;76.62
52469;BME280;38381;53.688;10.776;2022-07-06T02:45:26;101787.13;;;14.23;76.55
52469;BME280;38381;53.688;10.776;2022-07-06T02:50:27;101785.31;;;14.14;76.74
52469;BME280;38381;53.688;10.776;2022-07-06T02:55:27;101787.13;;;14.23;76.47
52469;BME280;38381;53.688;10.776;2022-07-06T03:00:27;101797.56;;;14.21;76.22
52469;BME280;38381;53.688;10.776;2022-07-06T03:05:28;101797.56;;;14.21;76.35
52469;BME280;38381;53.688;10.776;2022-07-06T03:10:28;101795.84;;;14.23;76.53
52469;BME280;38381;53.688;10.776;2022-07-06T03:15:28;101802.66;;;14.07;76.84
52469;BME280;38381;53.688;10.776;2022-07-06T03:20:29;101803.59;;;14.19;76.53
52469;BME280;38381;53.688;10.776;2022-07-06T03:25:29;101810.66;;;14.29;76.04
52469;BME280;38381;53.688;10.776;2022-07-06T03:30:29;101802.75;;;14.18;76.01
52469;BME280;38381;53.688;10.776;2022-07-06T03:35:30;101802.75;;;14.18;75.56
52469;BME280;38381;53.688;10.776;2022-07-06T03:40:30;101808.84;;;14.19;74.41
52469;BME280;38381;53.688;10.776;2022-07-06T03:45:31;101808.88;;;14.22;74.14
52469;BME280;38381;53.688;10.776;2022-07-06T03:50:31;101806.22;;;14.16;73.61
52469;BME280;38381;53.688;10.776;2022-07-06T03:55:31;101808.91;;;14.28;72.48
52469;BME280;38381;53.688;10.776;2022-07-06T04:00:32;101805.34;;;14.18;72.62
52469;BME280;38381;53.688;10.776;2022-07-06T04:05:34;101804.50;;;14.19;71.55
52469;BME280;38381;53.688;10.776;2022-07-06T04:10:34;101802.78;;;14.21;71.26
52469;BME280;38381;53.688;10.776;2022-07-06T04:15:35;101802.78;;;14.21;71.24
52469;BME280;38381;53.688;10.776;2022-07-06T04:20:37;101812.31;;;14.18;71.16
52469;BME280;38381;53.688;10.776;2022-07-06T04:25:37;101810.66;;;14.26;70.40
52469;BME280;38381;53.688;10.776;2022-07-06T04:30:37;101809.72;;;14.18;70.92
52469;BME280;38381;53.688;10.776;2022-07-06T04:35:38;101812.34;;;14.22;70.79
52469;BME280;38381;53.688;10.776;2022-07-06T04:40:38;101812.44;;;14.35;71.22
52469;BME280;38381;53.688;10.776;2022-07-06T04:45:39;101822.84;;;14.28;71.90
52469;BME280;38381;53.688;10.776;2022-07-06T04:50:39;101829.72;;;14.17;74.78
52469;BME280;38381;53.688;10.776;2022-07-06T04:55:39;101832.31;;;14.16;76.57
52469;BME280;38381;53.688;10.776;2022-07-06T05:00:40;101838.28;;;14.05;77.83
52469;BME280;38381;53.688;10.776;2022-07-06T05:05:40;101827.00;;;14.05;77.72
52469;BME280;38381;53.688;10.776;2022-07-06T05:10:40;101826.09;;;14.04;78.22
52469;BME280;38381;53.688;10.776;2022-07-06T05:15:41;101823.56;;;14.09;77.75
52469;BME280;38381;53.688;10.776;2022-07-06T05:20:41;101828.00;;;14.22;76.84
52469;BME280;38381;53.688;10.776;2022-07-06T05:25:41;101834.13;;;14.26;77.03
52469;BME280;38381;53.688;10.776;2022-07-06T05:30:41;101826.34;;;14.35;77.45
52469;BME280;38381;53.688;10.776;2022-07-06T05:35:42;101835.19;;;14.48;76.71
52469;BME280;38381;53.688;10.776;2022-07-06T05:40:42;101837.78;;;14.48;76.26
52469;BME280;38381;53.688;10.776;2022-07-06T05:45:42;101841.28;;;14.53;75.60
52469;BME280;38381;53.688;10.776;2022-07-06T05:50:43;101843.91;;;14.53;76.11
52469;BME280;38381;53.688;10.776;2022-07-06T05:55:43;101840.63;;;14.77;75.89
52469;BME280;38381;53.688;10.776;2022-07-06T06:00:44;101838.81;;;14.70;76.38
52469;BME280;38381;53.688;10.776;2022-07-06T06:05:44;101831.06;;;14.79;77.18
52469;BME280;38381;53.688;10.776;2022-07-06T06:10:44;101830.19;;;14.80;78.15
52469;BME280;38381;53.688;10.776;2022-07-06T06:15:45;101831.16;;;14.93;77.37
52469;BME280;38381;53.688;10.776;2022-07-06T06:20:46;101839.94;;;15.06;77.33
52469;BME280;38381;53.688;10.776;2022-07-06T06:25:46;101831.25;;;15.16;75.94
52469;BME280;38381;53.688;10.776;2022-07-06T06:30:46;101833.91;;;15.18;76.73
52469;BME280;38381;53.688;10.776;2022-07-06T06:35:49;101840.06;;;15.38;76.21
52469;BME280;38381;53.688;10.776;2022-07-06T06:40:49;101840.06;;;15.35;75.05
52469;BME280;38381;53.688;10.776;2022-07-06T06:45:50;101848.06;;;15.74;73.75
52469;BME280;38381;53.688;10.776;2022-07-06T06:50:50;101838.53;;;16.02;71.87
52469;BME280;38381;53.688;10.776;2022-07-06T06:55:50;101838.53;;;16.02;72.52
52469;BME280;38381;53.688;10.776;2022-07-06T07:00:51;101842.88;;;16.07;71.08
52469;BME280;38381;53.688;10.776;2022-07-06T07:05:51;101846.38;;;16.13;71.01
52469;BME280;38381;53.688;10.776;2022-07-06T07:10:52;101853.38;;;16.18;70.50
52469;BME280;38381;53.688;10.776;2022-07-06T07:15:52;101850.75;;;16.31;68.74
52469;BME280;38381;53.688;10.776;2022-07-06T07:20:52;101845.50;;;16.34;68.25
52469;BME280;38381;53.688;10.776;2022-07-06T07:25:52;101850.72;;;16.58;66.94
52469;BME280;38381;53.688;10.776;2022-07-06T07:30:53;101853.31;;;16.94;66.36
52469;BME280;38381;53.688;10.776;2022-07-06T07:35:53;101855.97;;;16.83;65.03
52469;BME280;38381;53.688;10.776;2022-07-06T07:40:54;101855.97;;;16.84;66.17
52469;BME280;38381;53.688;10.776;2022-07-06T07:45:54;101862.94;;;16.87;65.22
52469;BME280;38381;53.688;10.776;2022-07-06T07:50:55;101856.75;;;17.17;63.54
52469;BME280;38381;53.688;10.776;2022-07-06T07:55:55;101854.06;;;17.36;62.15
52469;BME280;38381;53.688;10.776;2022-07-06T08:00:55;101858.34;;;17.58;61.61
52469;BME280;38381;53.688;10.776;2022-07-06T08:05:55;101863.56;;;17.61;62.76
52469;BME280;38381;53.688;10.776;2022-07-06T08:10:56;101865.31;;;17.62;60.49
52469;BME280;38381;53.688;10.776;2022-07-06T08:15:56;101863.56;;;17.57;58.39
52469;BME280;38381;53.688;10.776;2022-07-06T08:20:56;101859.16;;;17.65;58.18
52469;BME280;38381;53.688;10.776;2022-07-06T08:25:57;101853.09;;;17.57;58.84
52469;BME280;38381;53.688;10.776;2022-07-06T08:30:57;101853.00;;;17.77;59.78
52469;BME280;38381;53.688;10.776;2022-07-06T08:35:57;101863.44;;;17.91;59.05
52469;BME280;38381;53.688;10.776;2022-07-06T08:40:58;101855.44;;;18.09;59.79
52469;BME280;38381;53.688;10.776;2022-07-06T08:45:58;101862.31;;;18.24;57.43
52469;BME280;38381;53.688;10.776;2022-07-06T08:50:59;101865.75;;;18.30;55.08
52469;BME280;38381;53.688;10.776;2022-07-06T08:56:00;101860.41;;;18.43;51.87
52469;BME280;38381;53.688;10.776;2022-07-06T09:01:04;101859.50;;;18.45;52.35
52469;BME280;38381;53.688;10.776;2022-07-06T09:06:05;101862.22;;;18.38;54.01
52469;BME280;38381;53.688;10.776;2022-07-06T09:11:06;101865.59;;;18.50;54.41
52469;BME280;38381;53.688;10.776;2022-07-06T09:16:15;101859.53;;;18.44;55.84
52469;BME280;38381;53.688;10.776;2022-07-06T09:21:30;101866.41;;;18.56;54.06
52469;BME280;38381;53.688;10.776;2022-07-06T09:26:32;101875.16;;;18.61;54.71
52469;BME280;38381;53.688;10.776;2022-07-06T09:31:32;101871.66;;;18.59;52.97
52469;BME280;38381;53.688;10.776;2022-07-06T09:36:40;101865.38;;;18.74;52.77
52469;BME280;38381;53.688;10.776;2022-07-06T09:41:40;101862.66;;;18.86;52.60
52469;BME280;38381;53.688;10.776;2022-07-06T09:46:42;101862.41;;;19.09;53.00
52469;BME280;38381;53.688;10.776;2022-07-06T09:51:44;101869.44;;;19.08;53.14
52469;BME280;38381;53.688;10.776;2022-07-06T09:56:47;101868.63;;;19.03;51.62
52469;BME280;38381;53.688;10.776;2022-07-06T10:01:51;101877.56;;;18.84;52.89
52469;BME280;38381;53.688;10.776;2022-07-06T10:06:53;101872.47;;;18.65;52.01
52469;BME280;38381;53.688;10.776;2022-07-06T10:11:56;101875.16;;;18.58;52.59
52469;BME280;38381;53.688;10.776;2022-07-06T10:16:58;101878.13;;;18.15;54.78
52469;BME280;38381;53.688;10.776;2022-07-06T10:22:01;101895.75;;;17.96;57.35
52469;BME280;38381;53.688;10.776;2022-07-06T10:27:02;101886.16;;;17.93;59.71
52469;BME280;38381;53.688;10.776;2022-07-06T10:32:03;101883.66;;;17.70;59.88
52469;BME280;38381;53.688;10.776;2022-07-06T10:37:04;101885.34;;;17.77;58.64
52469;BME280;38381;53.688;10.776;2022-07-06T10:42:04;101883.66;;;17.70;59.26
52469;BME280;38381;53.688;10.776;2022-07-06T10:47:05;101881.00;;;17.73;59.15
52469;BME280;38381;53.688;10.776;2022-07-06T10:52:05;101889.69;;;17.86;59.30
52469;BME280;38381;53.688;10.776;2022-07-06T10:57:10;101887.06;;;17.89;59.34
52469;BME280;38381;53.688;10.776;2022-07-06T11:02:15;101874.69;;;18.06;59.98
52469;BME280;38381;53.688;10.776;2022-07-06T11:07:18;101877.19;;;18.25;59.21
52469;BME280;38381;53.688;10.776;2022-07-06T11:12:20;101853.59;;;18.20;57.45
52469;BME280;38381;53.688;10.776;2022-07-06T11:17:20;101856.88;;;18.47;55.71
52469;BME280;38381;53.688;10.776;2022-07-06T11:22:21;101852.44;;;18.54;54.70
52469;BME280;38381;53.688;10.776;2022-07-06T11:27:24;101848.66;;;18.87;51.50
52469;BME280;38381;53.688;10.776;2022-07-06T11:32:25;101843.34;;;18.92;53.14
52469;BME280;38381;53.688;10.776;2022-07-06T11:37:26;101843.97;;;19.14;52.21
52469;BME280;38381;53.688;10.776;2022-07-06T11:42:26;101832.47;;;19.19;51.60
52469;BME280;38381;53.688;10.776;2022-07-06T11:47:30;101836.78;;;19.28;51.35
52469;BME280;38381;53.688;10.776;2022-07-06T11:52:31;101831.22;;;19.49;51.17
52469;BME280;38381;53.688;10.776;2022-07-06T11:57:32;101836.31;;;19.63;51.95
52469;BME280;38381;53.688;10.776;2022-07-06T12:02:32;101834.28;;;19.85;50.18
52469;BME280;38381;53.688;10.776;2022-07-06T12:07:33;101824.00;;;19.65;50.25
52469;BME280;38381;53.688;10.776;2022-07-06T12:12:33;101814.75;;;19.99;50.59
52469;BME280;38381;53.688;10.776;2022-07-06T12:17:33;101811.41;;;19.87;49.89
52469;BME280;38381;53.688;10.776;2022-07-06T12:22:33;101813.22;;;19.85;49.86
52469;BME280;38381;53.688;10.776;2022-07-06T12:27:34;101799.03;;;19.93;49.55
52469;BME280;38381;53.688;10.776;2022-07-06T12:32:35;101793.09;;;19.80;49.16
52469;BME280;38381;53.688;10.776;2022-07-06T12:37:36;101792.53;;;20.14;49.53
52469;BME280;38381;53.688;10.776;2022-07-06T12:42:45;101795.72;;;19.81;49.77
52469;BME280;38381;53.688;10.776;2022-07-06T12:47:59;101794.13;;;19.68;49.23
52469;BME280;38381;53.688;10.776;2022-07-06T12:53:02;101800.41;;;19.58;50.15
52469;BME280;38381;53.688;10.776;2022-07-06T12:58:02;101811.28;;;19.32;52.12
52469;BME280;38381;53.688;10.776;2022-07-06T13:03:03;101829.25;;;18.97;54.31
52469;BME280;38381;53.688;10.776;2022-07-06T13:08:03;101820.69;;;18.75;55.74
52469;BME280;38381;53.688;10.776;2022-07-06T13:13:08;101821.78;;;18.54;54.20
52469;BME280;38381;53.688;10.776;2022-07-06T13:18:08;101821.06;;;18.37;53.26
52469;BME280;38381;53.688;10.776;2022-07-06T13:23:08;101808.09;;;18.21;53.62
52469;BME280;38381;53.688;10.776;2022-07-06T13:28:09;101804.31;;;18.50;53.50
52469;BME280;38381;53.688;10.776;2022-07-06T13:33:09;101798.03;;;18.62;53.91
52469;BME280;38381;53.688;10.776;2022-07-06T13:38:10;101788.25;;;18.81;53.04
52469;BME280;38381;53.688;10.776;2022-07-06T13:43:10;101773.22;;;18.92;52.25
52469;BME280;38381;53.688;10.776;2022-07-06T13:48:10;101780.84;;;19.14;51.70
52469;BME280;38381;53.688;10.776;2022-07-06T13:53:10;101782.72;;;19.04;50.91
52469;BME280;38381;53.688;10.776;2022-07-06T13:58:11;101774.53;;;19.27;50.81
52469;BME280;38381;53.688;10.776;2022-07-06T14:03:11;101765.53;;;19.43;50.25
52469;BME280;38381;53.688;10.776;2022-07-06T14:08:11;101765.44;;;19.49;50.51
52469;BME280;38381;53.688;10.776;2022-07-06T14:13:12;101761.97;;;19.47;49.98
52469;BME280;38381;53.688;10.776;2022-07-06T14:18:13;101761.53;;;19.18;50.83
52469;BME280;38381;53.688;10.776;2022-07-06T14:23:15;101765.03;;;19.17;51.73
52469;BME280;38381;53.688;10.776;2022-07-06T14:28:16;101750.16;;;19.16;52.29
52469;BME280;38381;53.688;10.776;2022-07-06T14:33:20;101751.88;;;19.18;51.53
52469;BME280;38381;53.688;10.776;2022-07-06T14:38:20;101748.03;;;19.42;51.50
52469;BME280;38381;53.688;10.776;2022-07-06T14:43:20;101751.19;;;19.64;49.59
52469;BME280;38381;53.688;10.776;2022-07-06T14:48:21;101752.25;;;19.53;48.07
52469;BME280;38381;53.688;10.776;2022-07-06T14:53:21;101757.28;;;19.66;48.46
52469;BME280;38381;53.688;10.776;2022-07-06T14:58:21;101746.75;;;19.68;47.02
52469;BME280;38381;53.688;10.776;2022-07-06T15:03:22;101747.50;;;19.79;45.18
52469;BME280;38381;53.688;10.776;2022-07-06T15:08:23;101744.78;;;19.82;45.40
52469;BME280;38381;53.688;10.776;2022-07-06T15:13:23;101741.41;;;19.74;44.34
52469;BME280;38381;53.688;10.776;2022-07-06T15:18:24;101737.16;;;19.64;44.34
52469;BME280;38381;53.688;10.776;2022-07-06T15:23:24;101742.34;;;19.72;45.15
52469;BME280;38381;53.688;10.776;2022-07-06T15:28:27;101729.09;;;19.76;46.19
52469;BME280;38381;53.688;10.776;2022-07-06T15:33:27;101731.06;;;19.62;46.51
52469;BME280;38381;53.688;10.776;2022-07-06T15:38:27;101722.78;;;19.88;46.72
52469;BME280;38381;53.688;10.776;2022-07-06T15:43:28;101713.84;;;19.97;45.33
52469;BME280;38381;53.688;10.776;2022-07-06T15:48:30;101713.09;;;19.88;45.54
52469;BME280;38381;53.688;10.776;2022-07-06T15:53:31;101716.81;;;19.77;46.33
52469;BME280;38381;53.688;10.776;2022-07-06T15:58:31;101721.00;;;19.88;45.79
52469;BME280;38381;53.688;10.776;2022-07-06T16:03:31;101707.75;;;19.93;45.99
52469;BME280;38381;53.688;10.776;2022-07-06T16:08:32;101711.31;;;19.89;46.60
52469;BME280;38381;53.688;10.776;2022-07-06T16:13:32;101713.00;;;19.93;47.00
52469;BME280;38381;53.688;10.776;2022-07-06T16:18:32;101706.25;;;19.78;46.96
52469;BME280;38381;53.688;10.776;2022-07-06T16:23:33;101702.75;;;19.78;47.40
52469;BME280;38381;53.688;10.776;2022-07-06T16:28:34;101693.47;;;19.52;46.57
52469;BME280;38381;53.688;10.776;2022-07-06T16:33:35;101704.38;;;19.29;46.40
52469;BME280;38381;53.688;10.776;2022-07-06T16:38:37;101695.72;;;19.21;46.75
52469;BME280;38381;53.688;10.776;2022-07-06T16:43:38;101690.00;;;18.91;46.81
52469;BME280;38381;53.688;10.776;2022-07-06T16:48:38;101689.19;;;18.86;47.76
52469;BME280;38381;53.688;10.776;2022-07-06T16:53:39;101679.41;;;18.97;48.08
52469;BME280;38381;53.688;10.776;2022-07-06T16:58:39;101678.59;;;18.90;49.01
52469;BME280;38381;53.688;10.776;2022-07-06T17:03:39;101684.91;;;18.77;49.62
52469;BME280;38381;53.688;10.776;2022-07-06T17:08:40;101669.16;;;18.79;50.05
52469;BME280;38381;53.688;10.776;2022-07-06T17:13:40;101664.63;;;18.88;49.99
52469;BME280;38381;53.688;10.776;2022-07-06T17:18:40;101655.06;;;18.83;49.71
52469;BME280;38381;53.688;10.776;2022-07-06T17:23:41;101659.53;;;18.75;50.01
52469;BME280;38381;53.688;10.776;2022-07-06T17:28:41;101653.22;;;18.88;50.06
52469;BME280;38381;53.688;10.776;2022-07-06T17:33:42;101646.34;;;18.78;51.05
52469;BME280;38381;53.688;10.776;2022-07-06T17:38:42;101644.50;;;18.84;51.10
52469;BME280;38381;53.688;10.776;2022-07-06T17:43:42;101634.97;;;18.74;51.15
52469;BME280;38381;53.688;10.776;2022-07-06T17:48:42;101632.34;;;18.74;51.89
52469;BME280;38381;53.688;10.776;2022-07-06T17:53:43;101630.53;;;18.82;51.45
52469;BME280;38381;53.688;10.776;2022-07-06T17:58:43;101628.81;;;18.81;50.78
52469;BME280;38381;53.688;10.776;2022-07-06T18:03:44;101620.91;;;18.81;51.26
52469;BME280;38381;53.688;10.776;2022-07-06T18:08:45;101622.00;;;18.63;51.02
52469;BME280;38381;53.688;10.776;2022-07-06T18:13:47;101611.56;;;18.59;51.37
52469;BME280;38381;53.688;10.776;2022-07-06T18:18:47;101606.41;;;18.51;51.83
52469;BME280;38381;53.688;10.776;2022-07-06T18:23:48;101605.53;;;18.52;51.94
52469;BME280;38381;53.688;10.776;2022-07-06T18:28:48;101596.88;;;18.42;52.37
52469;BME280;38381;53.688;10.776;2022-07-06T18:33:49;101596.91;;;18.41;52.17
52469;BME280;38381;53.688;10.776;2022-07-06T18:38:49;101594.19;;;18.48;52.40
52469;BME280;38381;53.688;10.776;2022-07-06T18:43:51;101590.81;;;18.37;52.60
52469;BME280;38381;53.688;10.776;2022-07-06T18:48:51;101584.69;;;18.37;52.52
52469;BME280;38381;53.688;10.776;2022-07-06T18:53:52;101577.84;;;18.25;53.29
52469;BME280;38381;53.688;10.776;2022-07-06T18:58:52;101582.28;;;18.21;53.00
52469;BME280;38381;53.688;10.776;2022-07-06T19:03:52;101581.34;;;18.25;52.86
52469;BME280;38381;53.688;10.776;2022-07-06T19:08:52;101574.47;;;18.15;53.35
52469;BME280;38381;53.688;10.776;2022-07-06T19:13:53;101563.13;;;18.12;53.72
52469;BME280;38381;53.688;10.776;2022-07-06T19:18:53;101565.75;;;18.13;53.57
52469;BME280;38381;53.688;10.776;2022-07-06T19:23:53;101565.03;;;17.99;54.16
52469;BME280;38381;53.688;10.776;2022-07-06T19:28:54;101554.63;;;17.91;54.50
52469;BME280;38381;53.688;10.776;2022-07-06T19:33:55;101551.16;;;17.86;55.16
52469;BME280;38381;53.688;10.776;2022-07-06T19:38:56;101551.22;;;17.84;55.08
52469;BME280;38381;53.688;10.776;2022-07-06T19:43:56;101536.31;;;17.82;54.94
52469;BME280;38381;53.688;10.776;2022-07-06T19:48:56;101538.06;;;17.80;55.17
52469;BME280;38381;53.688;10.776;2022-07-06T19:53:57;101539.06;;;17.69;55.31
52469;BME280;38381;53.688;10.776;2022-07-06T19:58:57;101529.56;;;17.59;56.02
52469;BME280;38381;53.688;10.776;2022-07-06T20:03:58;101532.97;;;17.67;55.95
52469;BME280;38381;53.688;10.776;2022-07-06T20:08:59;101526.97;;;17.58;56.00
52469;BME280;38381;53.688;10.776;2022-07-06T20:14:00;101516.44;;;17.61;55.93
52469;BME280;38381;53.688;10.776;2022-07-06T20:19:01;101510.38;;;17.56;56.23
52469;BME280;38381;53.688;10.776;2022-07-06T20:24:01;101506.31;;;17.24;57.08
52469;BME280;38381;53.688;10.776;2022-07-06T20:29:03;101503.56;;;17.38;56.89
52469;BME280;38381;53.688;10.776;2022-07-06T20:34:03;101500.03;;;17.39;57.72
52469;BME280;38381;53.688;10.776;2022-07-06T20:39:04;101507.00;;;17.43;59.21
52469;BME280;38381;53.688;10.776;2022-07-06T20:44:05;101501.06;;;17.25;61.38
52469;BME280;38381;53.688;10.776;2022-07-06T20:49:05;101511.75;;;17.02;62.76
52469;BME280;38381;53.688;10.776;2022-07-06T20:54:05;101512.75;;;16.86;65.17
52469;BME280;38381;53.688;10.776;2022-07-06T20:59:06;101512.91;;;16.61;67.31
52469;BME280;38381;53.688;10.776;2022-07-06T21:04:06;101516.50;;;16.43;69.76
52469;BME280;38381;53.688;10.776;2022-07-06T21:09:07;101502.59;;;16.26;71.57
52469;BME280;38381;53.688;10.776;2022-07-06T21:14:07;101505.31;;;16.12;72.52
52469;BME280;38381;53.688;10.776;2022-07-06T21:19:08;101496.63;;;15.99;73.40
52469;BME280;38381;53.688;10.776;2022-07-06T21:24:08;101488.84;;;15.82;74.51
52469;BME280;38381;53.688;10.776;2022-07-06T21:29:09;101474.91;;;15.83;74.56
52469;BME280;38381;53.688;10.776;2022-07-06T21:34:10;101473.19;;;15.75;75.46
52469;BME280;38381;53.688;10.776;2022-07-06T21:39:10;101479.28;;;15.66;75.33
52469;BME280;38381;53.688;10.776;2022-07-06T21:44:10;101474.06;;;15.60;76.54
52469;BME280;38381;53.688;10.776;2022-07-06T21:49:11;101461.88;;;15.63;76.34
52469;BME280;38381;53.688;10.776;2022-07-06T21:54:11;101456.69;;;15.36;77.95
52469;BME280;38381;53.688;10.776;2022-07-06T21:59:11;101449.75;;;15.21;78.76
52469;BME280;38381;53.688;10.776;2022-07-06T22:04:12;101441.88;;;15.42;77.52
52469;BME280;38381;53.688;10.776;2022-07-06T22:09:12;101427.97;;;15.34;77.60
52469;BME280;38381;53.688;10.776;2022-07-06T22:14:12;101425.38;;;15.22;78.10
52469;BME280;38381;53.688;10.776;2022-07-06T22:19:13;101413.19;;;15.18;77.88
52469;BME280;38381;53.688;10.776;2022-07-06T22:24:14;101414.06;;;15.11;78.04
52469;BME280;38381;53.688;10.776;2022-07-06T22:29:14;101412.31;;;15.11;78.27
52469;BME280;38381;53.688;10.776;2022-07-06T22:34:14;101392.38;;;14.81;79.39
52469;BME280;38381;53.688;10.776;2022-07-06T22:39:15;101404.50;;;14.99;79.36
52469;BME280;38381;53.688;10.776;2022-07-06T22:44:15;101392.34;;;14.82;80.13
52469;BME280;38381;53.688;10.776;2022-07-06T22:49:16;101381.91;;;14.79;80.09
52469;BME280;38381;53.688;10.776;2022-07-06T22:54:16;101370.56;;;14.97;79.36
52469;BME280;38381;53.688;10.776;2022-07-06T22:59:17;101366.22;;;14.92;80.14
52469;BME280;38381;53.688;10.776;2022-07-06T23:04:17;101371.44;;;14.84;80.36
52469;BME280;38381;53.688;10.776;2022-07-06T23:09:17;101360.16;;;14.85;79.96
52469;BME280;38381;53.688;10.776;2022-07-06T23:14:18;101358.41;;;14.70;80.30
52469;BME280;38381;53.688;10.776;2022-07-06T23:19:18;101348.81;;;14.94;79.92
52469;BME280;38381;53.688;10.776;2022-07-06T23:24:18;101342.78;;;14.62;81.04
52469;BME280;38381;53.688;10.776;2022-07-06T23:29:18;101343.63;;;14.74;81.00
52469;BME280;38381;53.688;10.776;2022-07-06T23:34:19;101332.28;;;14.78;80.89
52469;BME280;38381;53.688;10.776;2022-07-06T23:39:19;101315.72;;;14.86;80.59
52469;BME280;38381;53.688;10.776;2022-07-06T23:44:22;101317.53;;;14.61;82.46
52469;BME280;38381;53.688;10.776;2022-07-06T23:49:23;101309.72;;;14.57;83.15
52469;BME280;38381;53.688;10.776;2022-07-06T23:54:23;101307.06;;;14.41;85.45
52469;BME280;38381;53.688;10.776;2022-07-06T23:59:24;101298.38;;;14.50;85.86
